sensor_id;sensor_type;location;lat;lon;timestamp;pressure;altitude;pressure_sealevel;temperature;humidity
61710;BME280;47633;51.494;5.386;2023-08-12T00:01:03;101719.19;;;22.90;63.78
61710;BME280;47633;51.494;5.386;2023-08-12T00:03:29;101720.16;;;22.89;63.85
61710;BME280;47633;51.494;5.386;2023-08-12T00:05:54;101718.50;;;22.88;63.48
61710;BME280;47633;51.494;5.386;2023-08-12T00:08:21;101715.84;;;22.88;63.79
61710;BME280;47633;51.494;5.386;2023-08-12T00:10:47;101725.47;;;22.89;63.68
61710;BME280;47633;51.494;5.386;2023-08-12T00:13:12;101721.16;;;22.88;63.51
61710;BME280;47633;51.494;5.386;2023-08-12T00:15:39;101722.81;;;22.89;63.46
61710;BME280;47633;51.494;5.386;2023-08-12T00:18:06;101705.22;;;22.88;63.79
61710;BME280;47633;51.494;5.386;2023-08-12T00:20:32;101704.34;;;22.87;63.65
61710;BME280;47633;51.494;5.386;2023-08-12T00:22:57;101699.91;;;22.88;63.73
61710;BME280;47633;51.494;5.386;2023-08-12T00:25:22;101700.84;;;22.87;63.45
61710;BME280;47633;51.494;5.386;2023-08-12T00:27:47;101702.56;;;22.88;63.48
61710;BME280;47633;51.494;5.386;2023-08-12T00:30:13;101696.25;;;22.89;63.77
61710;BME280;47633;51.494;5.386;2023-08-12T00:32:38;101696.38;;;22.87;63.77
61710;BME280;47633;51.494;5.386;2023-08-12T00:35:04;101686.59;;;22.88;63.36
61710;BME280;47633;51.494;5.386;2023-08-12T00:37:30;101690.22;;;22.87;63.81
61710;BME280;47633;51.494;5.386;2023-08-12T00:39:55;101690.09;;;22.88;63.56
61710;BME280;47633;51.494;5.386;2023-08-12T00:42:21;101696.25;;;22.89;63.29
61710;BME280;47633;51.494;5.386;2023-08-12T00:44:46;101683.09;;;22.87;63.59
61710;BME280;47633;51.494;5.386;2023-08-12T00:47:11;101685.63;;;22.89;63.59
61710;BME280;47633;51.494;5.386;2023-08-12T00:49:38;101679.47;;;22.88;63.67
61710;BME280;47633;51.494;5.386;2023-08-12T00:52:05;101678.63;;;22.88;63.41
61710;BME280;47633;51.494;5.386;2023-08-12T00:54:30;101682.13;;;22.88;63.77
61710;BME280;47633;51.494;5.386;2023-08-12T00:56:55;101675.97;;;22.88;63.59
61710;BME280;47633;51.494;5.386;2023-08-12T00:59:21;101669.81;;;22.87;63.85
61710;BME280;47633;51.494;5.386;2023-08-12T01:01:48;101674.16;;;22.88;63.24
61710;BME280;47633;51.494;5.386;2023-08-12T01:04:13;101674.28;;;22.87;63.32
61710;BME280;47633;51.494;5.386;2023-08-12T01:06:39;101670.78;;;22.86;63.27
61710;BME280;47633;51.494;5.386;2023-08-12T01:09:05;101665.34;;;22.88;63.55
61710;BME280;47633;51.494;5.386;2023-08-12T01:11:49;101662.97;;;22.85;63.75
61710;BME280;47633;51.494;5.386;2023-08-12T01:14:39;101660.16;;;22.86;63.77
61710;BME280;47633;51.494;5.386;2023-08-12T01:17:08;101652.19;;;22.86;63.39
61710;BME280;47633;51.494;5.386;2023-08-12T01:19:38;101661.00;;;22.87;63.78
61710;BME280;47633;51.494;5.386;2023-08-12T01:22:06;101653.03;;;22.87;63.33
61710;BME280;47633;51.494;5.386;2023-08-12T01:24:40;101638.91;;;22.86;63.30
61710;BME280;47633;51.494;5.386;2023-08-12T01:27:07;101640.56;;;22.87;63.44
61710;BME280;47633;51.494;5.386;2023-08-12T01:29:33;101642.41;;;22.87;63.44
61710;BME280;47633;51.494;5.386;2023-08-12T01:32:22;101635.38;;;22.86;63.48
61710;BME280;47633;51.494;5.386;2023-08-12T01:35:04;101631.06;;;22.85;63.74
61710;BME280;47633;51.494;5.386;2023-08-12T01:37:32;101627.41;;;22.86;63.59
61710;BME280;47633;51.494;5.386;2023-08-12T01:40:01;101622.97;;;22.86;63.60
61710;BME280;47633;51.494;5.386;2023-08-12T01:42:30;101616.78;;;22.86;63.25
61710;BME280;47633;51.494;5.386;2023-08-12T01:44:57;101619.44;;;22.86;63.37
61710;BME280;47633;51.494;5.386;2023-08-12T01:47:22;101624.75;;;22.86;63.51
61710;BME280;47633;51.494;5.386;2023-08-12T01:49:48;101622.97;;;22.86;63.59
61710;BME280;47633;51.494;5.386;2023-08-12T01:52:13;101617.66;;;22.86;63.64
61710;BME280;47633;51.494;5.386;2023-08-12T01:54:38;101618.63;;;22.85;63.38
61710;BME280;47633;51.494;5.386;2023-08-12T01:57:04;101611.47;;;22.86;63.58
61710;BME280;47633;51.494;5.386;2023-08-12T01:59:31;101618.63;;;22.85;63.26
61710;BME280;47633;51.494;5.386;2023-08-12T02:01:57;101610.63;;;22.85;63.39
61710;BME280;47633;51.494;5.386;2023-08-12T02:04:22;101611.47;;;22.86;63.57
61710;BME280;47633;51.494;5.386;2023-08-12T02:06:47;101610.50;;;22.87;63.59
61710;BME280;47633;51.494;5.386;2023-08-12T02:09:14;101608.81;;;22.86;63.70
61710;BME280;47633;51.494;5.386;2023-08-12T02:11:40;101604.34;;;22.86;63.60
61710;BME280;47633;51.494;5.386;2023-08-12T02:14:05;101604.50;;;22.85;63.25
61710;BME280;47633;51.494;5.386;2023-08-12T02:16:30;101605.19;;;22.87;63.17
61710;BME280;47633;51.494;5.386;2023-08-12T02:18:56;101602.53;;;22.87;63.64
61710;BME280;47633;51.494;5.386;2023-08-12T02:21:21;101607.97;;;22.85;63.38
61710;BME280;47633;51.494;5.386;2023-08-12T02:23:46;101595.53;;;22.86;63.50
61710;BME280;47633;51.494;5.386;2023-08-12T02:26:12;101587.00;;;22.82;63.41
61710;BME280;47633;51.494;5.386;2023-08-12T02:28:37;101589.38;;;22.85;63.21
61710;BME280;47633;51.494;5.386;2023-08-12T02:31:02;101587.56;;;22.86;63.14
61710;BME280;47633;51.494;5.386;2023-08-12T02:33:27;101586.72;;;22.85;63.60
61710;BME280;47633;51.494;5.386;2023-08-12T02:35:54;101576.91;;;22.86;63.57
61710;BME280;47633;51.494;5.386;2023-08-12T02:38:20;101586.59;;;22.87;63.26
61710;BME280;47633;51.494;5.386;2023-08-12T02:40:48;101581.41;;;22.85;63.74
61710;BME280;47633;51.494;5.386;2023-08-12T02:43:14;101581.28;;;22.87;63.51
61710;BME280;47633;51.494;5.386;2023-08-12T02:45:39;101568.94;;;22.86;63.41
61710;BME280;47633;51.494;5.386;2023-08-12T02:48:05;101569.09;;;22.84;63.55
61710;BME280;47633;51.494;5.386;2023-08-12T02:50:30;101562.81;;;22.85;63.48
61710;BME280;47633;51.494;5.386;2023-08-12T02:52:55;101564.63;;;22.85;63.22
61710;BME280;47633;51.494;5.386;2023-08-12T02:55:21;101564.50;;;22.86;63.25
61710;BME280;47633;51.494;5.386;2023-08-12T02:57:46;101559.31;;;22.85;63.20
61710;BME280;47633;51.494;5.386;2023-08-12T03:00:12;101558.31;;;22.86;63.00
61710;BME280;47633;51.494;5.386;2023-08-12T03:02:37;101552.19;;;22.85;63.00
61710;BME280;47633;51.494;5.386;2023-08-12T03:05:03;101558.31;;;22.86;63.10
61710;BME280;47633;51.494;5.386;2023-08-12T03:07:28;101555.66;;;22.86;62.98
61710;BME280;47633;51.494;5.386;2023-08-12T03:09:53;101553.00;;;22.86;63.30
61710;BME280;47633;51.494;5.386;2023-08-12T03:12:19;101551.34;;;22.85;63.02
61710;BME280;47633;51.494;5.386;2023-08-12T03:14:44;101553.88;;;22.86;63.42
61710;BME280;47633;51.494;5.386;2023-08-12T03:17:09;101550.47;;;22.84;63.31
61710;BME280;47633;51.494;5.386;2023-08-12T03:19:35;101543.38;;;22.85;63.21
61710;BME280;47633;51.494;5.386;2023-08-12T03:22:01;101543.22;;;22.86;63.22
61710;BME280;47633;51.494;5.386;2023-08-12T03:24:26;101538.75;;;22.87;62.92
61710;BME280;47633;51.494;5.386;2023-08-12T03:26:51;101537.19;;;22.84;63.37
61710;BME280;47633;51.494;5.386;2023-08-12T03:29:17;101529.09;;;22.86;63.04
61710;BME280;47633;51.494;5.386;2023-08-12T03:31:42;101530.91;;;22.85;63.28
61710;BME280;47633;51.494;5.386;2023-08-12T03:34:07;101530.91;;;22.85;63.33
61710;BME280;47633;51.494;5.386;2023-08-12T03:36:33;101526.44;;;22.86;63.18
61710;BME280;47633;51.494;5.386;2023-08-12T03:38:58;101513.28;;;22.84;63.14
61710;BME280;47633;51.494;5.386;2023-08-12T03:41:23;101514.13;;;22.85;62.82
61710;BME280;47633;51.494;5.386;2023-08-12T03:43:48;101511.47;;;22.85;62.94
61710;BME280;47633;51.494;5.386;2023-08-12T03:46:16;101509.66;;;22.85;63.11
61710;BME280;47633;51.494;5.386;2023-08-12T03:48:41;101514.97;;;22.85;63.13
61710;BME280;47633;51.494;5.386;2023-08-12T03:51:07;101507.00;;;22.85;62.98
61710;BME280;47633;51.494;5.386;2023-08-12T03:53:32;101508.81;;;22.85;63.27
61710;BME280;47633;51.494;5.386;2023-08-12T03:55:57;101498.06;;;22.86;63.17
61710;BME280;47633;51.494;5.386;2023-08-12T03:58:23;101496.38;;;22.85;63.27
61710;BME280;47633;51.494;5.386;2023-08-12T04:00:48;101510.47;;;22.86;62.94
61710;BME280;47633;51.494;5.386;2023-08-12T04:03:13;101500.84;;;22.85;63.20
61710;BME280;47633;51.494;5.386;2023-08-12T04:05:47;101507.97;;;22.84;63.32
61710;BME280;47633;51.494;5.386;2023-08-12T04:08:13;101497.19;;;22.86;63.11
61710;BME280;47633;51.494;5.386;2023-08-12T04:10:38;101492.03;;;22.84;62.98
61710;BME280;47633;51.494;5.386;2023-08-12T04:13:04;101479.59;;;22.85;63.27
61710;BME280;47633;51.494;5.386;2023-08-12T04:15:29;101467.97;;;22.86;63.11
61710;BME280;47633;51.494;5.386;2023-08-12T04:17:54;101480.41;;;22.85;62.67
61710;BME280;47633;51.494;5.386;2023-08-12T04:20:19;101483.22;;;22.83;62.60
61710;BME280;47633;51.494;5.386;2023-08-12T04:22:45;101485.06;;;22.83;63.07
61710;BME280;47633;51.494;5.386;2023-08-12T04:25:10;101485.88;;;22.83;63.13
61710;BME280;47633;51.494;5.386;2023-08-12T04:27:35;101487.56;;;22.85;62.80
61710;BME280;47633;51.494;5.386;2023-08-12T04:30:01;101476.06;;;22.84;62.92
61710;BME280;47633;51.494;5.386;2023-08-12T04:32:26;101484.06;;;22.84;62.80
61710;BME280;47633;51.494;5.386;2023-08-12T04:34:51;101492.88;;;22.85;62.94
61710;BME280;47633;51.494;5.386;2023-08-12T04:37:17;101500.84;;;22.85;63.24
61710;BME280;47633;51.494;5.386;2023-08-12T04:39:42;101500.00;;;22.84;63.02
61710;BME280;47633;51.494;5.386;2023-08-12T04:42:07;101480.56;;;22.83;62.81
61710;BME280;47633;51.494;5.386;2023-08-12T04:44:33;101467.28;;;22.83;62.67
61710;BME280;47633;51.494;5.386;2023-08-12T04:46:58;101459.59;;;22.80;63.15
61710;BME280;47633;51.494;5.386;2023-08-12T04:49:23;101472.59;;;22.83;63.12
61710;BME280;47633;51.494;5.386;2023-08-12T04:51:51;101470.91;;;22.82;62.80
61710;BME280;47633;51.494;5.386;2023-08-12T04:54:16;101467.41;;;22.82;62.61
61710;BME280;47633;51.494;5.386;2023-08-12T04:56:42;101463.78;;;22.83;62.91
61710;BME280;47633;51.494;5.386;2023-08-12T04:59:07;101459.31;;;22.83;62.61
61710;BME280;47633;51.494;5.386;2023-08-12T05:01:33;101444.31;;;22.82;62.96
61710;BME280;47633;51.494;5.386;2023-08-12T05:03:58;101440.69;;;22.83;62.48
61710;BME280;47633;51.494;5.386;2023-08-12T05:06:24;101444.31;;;22.82;62.59
61710;BME280;47633;51.494;5.386;2023-08-12T05:08:49;101452.16;;;22.84;62.84
61710;BME280;47633;51.494;5.386;2023-08-12T05:11:15;101448.81;;;22.82;63.07
61710;BME280;47633;51.494;5.386;2023-08-12T05:13:40;101439.00;;;22.82;62.99
61710;BME280;47633;51.494;5.386;2023-08-12T05:16:05;101442.38;;;22.85;62.48
61710;BME280;47633;51.494;5.386;2023-08-12T05:18:30;101443.22;;;22.85;62.54
61710;BME280;47633;51.494;5.386;2023-08-12T05:20:56;101444.19;;;22.84;62.52
61710;BME280;47633;51.494;5.386;2023-08-12T05:23:22;101453.16;;;22.83;62.74
61710;BME280;47633;51.494;5.386;2023-08-12T05:25:47;101426.44;;;22.85;62.55
61710;BME280;47633;51.494;5.386;2023-08-12T05:28:12;101427.28;;;22.85;62.92
61710;BME280;47633;51.494;5.386;2023-08-12T05:30:38;101449.50;;;22.84;62.97
61710;BME280;47633;51.494;5.386;2023-08-12T05:33:04;101444.19;;;22.84;63.04
61710;BME280;47633;51.494;5.386;2023-08-12T05:35:33;101436.34;;;22.82;62.47
61710;BME280;47633;51.494;5.386;2023-08-12T05:37:59;101438.03;;;22.83;62.57
61710;BME280;47633;51.494;5.386;2023-08-12T05:40:24;101428.53;;;22.81;62.66
61710;BME280;47633;51.494;5.386;2023-08-12T05:42:49;101439.72;;;22.85;62.60
61710;BME280;47633;51.494;5.386;2023-08-12T05:45:15;101432.59;;;22.85;62.90
61710;BME280;47633;51.494;5.386;2023-08-12T05:47:40;101434.56;;;22.83;63.00
61710;BME280;47633;51.494;5.386;2023-08-12T05:50:06;101424.63;;;22.85;62.91
61710;BME280;47633;51.494;5.386;2023-08-12T05:52:32;101432.72;;;22.83;62.80
61710;BME280;47633;51.494;5.386;2023-08-12T05:54:58;101425.59;;;22.84;62.58
61710;BME280;47633;51.494;5.386;2023-08-12T05:57:23;101429.09;;;22.85;62.75
61710;BME280;47633;51.494;5.386;2023-08-12T05:59:48;101426.59;;;22.83;62.67
61710;BME280;47633;51.494;5.386;2023-08-12T06:02:14;101436.22;;;22.84;62.44
61710;BME280;47633;51.494;5.386;2023-08-12T06:04:39;101426.44;;;22.85;62.71
61710;BME280;47633;51.494;5.386;2023-08-12T06:07:04;101423.78;;;22.85;62.94
61710;BME280;47633;51.494;5.386;2023-08-12T06:09:29;101423.78;;;22.85;62.64
61710;BME280;47633;51.494;5.386;2023-08-12T06:11:55;101419.31;;;22.85;62.39
61710;BME280;47633;51.494;5.386;2023-08-12T06:14:20;101414.97;;;22.84;62.71
61710;BME280;47633;51.494;5.386;2023-08-12T06:16:45;101412.31;;;22.84;62.90
61710;BME280;47633;51.494;5.386;2023-08-12T06:19:11;101414.81;;;22.86;62.90
61710;BME280;47633;51.494;5.386;2023-08-12T06:21:36;101403.50;;;22.83;62.34
61710;BME280;47633;51.494;5.386;2023-08-12T06:24:01;101410.50;;;22.85;62.63
61710;BME280;47633;51.494;5.386;2023-08-12T06:26:27;101404.31;;;22.84;62.44
61710;BME280;47633;51.494;5.386;2023-08-12T06:28:52;101399.00;;;22.84;62.54
61710;BME280;47633;51.494;5.386;2023-08-12T06:31:17;101391.03;;;22.84;62.34
61710;BME280;47633;51.494;5.386;2023-08-12T06:33:42;101384.22;;;22.81;62.63
61710;BME280;47633;51.494;5.386;2023-08-12T06:36:08;101387.41;;;22.85;63.24
61710;BME280;47633;51.494;5.386;2023-08-12T06:38:33;101385.72;;;22.84;63.14
61710;BME280;47633;51.494;5.386;2023-08-12T06:40:58;101388.38;;;22.84;63.40
61710;BME280;47633;51.494;5.386;2023-08-12T06:43:24;101388.25;;;22.86;63.10
61710;BME280;47633;51.494;5.386;2023-08-12T06:45:49;101386.72;;;22.83;63.02
61710;BME280;47633;51.494;5.386;2023-08-12T06:48:14;101391.03;;;22.84;63.35
61710;BME280;47633;51.494;5.386;2023-08-12T06:50:39;101388.38;;;22.84;63.24
61710;BME280;47633;51.494;5.386;2023-08-12T06:53:05;101385.03;;;22.82;63.46
61710;BME280;47633;51.494;5.386;2023-08-12T06:55:30;101377.06;;;22.82;63.75
61710;BME280;47633;51.494;5.386;2023-08-12T06:57:55;101371.47;;;22.85;63.74
61710;BME280;47633;51.494;5.386;2023-08-12T07:00:21;101378.63;;;22.85;63.73
61710;BME280;47633;51.494;5.386;2023-08-12T07:02:46;101373.31;;;22.85;63.37
61710;BME280;47633;51.494;5.386;2023-08-12T07:05:11;101372.44;;;22.84;63.76
61710;BME280;47633;51.494;5.386;2023-08-12T07:07:37;101375.97;;;22.85;63.41
61710;BME280;47633;51.494;5.386;2023-08-12T07:10:02;101367.13;;;22.84;63.98
61710;BME280;47633;51.494;5.386;2023-08-12T07:12:28;101364.47;;;22.84;63.62
61710;BME280;47633;51.494;5.386;2023-08-12T07:14:53;101375.09;;;22.84;63.95
61710;BME280;47633;51.494;5.386;2023-08-12T07:17:19;101374.28;;;22.83;64.20
61710;BME280;47633;51.494;5.386;2023-08-12T07:19:44;101371.59;;;22.83;64.12
61710;BME280;47633;51.494;5.386;2023-08-12T07:22:09;101369.94;;;22.82;64.27
61710;BME280;47633;51.494;5.386;2023-08-12T07:24:35;101365.31;;;22.85;64.23
61710;BME280;47633;51.494;5.386;2023-08-12T07:27:01;101375.09;;;22.84;64.32
61710;BME280;47633;51.494;5.386;2023-08-12T07:29:26;101375.09;;;22.84;64.66
61710;BME280;47633;51.494;5.386;2023-08-12T07:31:52;101374.94;;;22.86;64.59
61710;BME280;47633;51.494;5.386;2023-08-12T07:34:18;101374.94;;;22.86;64.82
61710;BME280;47633;51.494;5.386;2023-08-12T07:36:43;101367.13;;;22.84;65.03
61710;BME280;47633;51.494;5.386;2023-08-12T07:39:08;101370.50;;;22.86;64.71
61710;BME280;47633;51.494;5.386;2023-08-12T07:41:33;101377.47;;;22.87;64.74
61710;BME280;47633;51.494;5.386;2023-08-12T07:43:59;101370.50;;;22.86;64.82
61710;BME280;47633;51.494;5.386;2023-08-12T07:46:24;101370.50;;;22.86;65.27
61710;BME280;47633;51.494;5.386;2023-08-12T07:48:49;101371.19;;;22.88;65.26
61710;BME280;47633;51.494;5.386;2023-08-12T07:51:15;101367.69;;;22.88;65.24
61710;BME280;47633;51.494;5.386;2023-08-12T07:53:40;101370.34;;;22.88;65.37
61710;BME280;47633;51.494;5.386;2023-08-12T07:56:05;101367.69;;;22.88;64.92
61710;BME280;47633;51.494;5.386;2023-08-12T07:58:31;101374.66;;;22.89;65.05
61710;BME280;47633;51.494;5.386;2023-08-12T08:00:57;101380.84;;;22.89;65.17
61710;BME280;47633;51.494;5.386;2023-08-12T08:03:22;101381.00;;;22.88;65.21
61710;BME280;47633;51.494;5.386;2023-08-12T08:05:47;101389.66;;;22.90;65.49
61710;BME280;47633;51.494;5.386;2023-08-12T08:08:13;101385.31;;;22.89;65.34
61710;BME280;47633;51.494;5.386;2023-08-12T08:10:39;101387.97;;;22.89;64.90
61710;BME280;47633;51.494;5.386;2023-08-12T08:13:04;101389.78;;;22.88;65.04
61710;BME280;47633;51.494;5.386;2023-08-12T08:15:29;101387.00;;;22.90;65.11
61710;BME280;47633;51.494;5.386;2023-08-12T08:17:55;101388.81;;;22.89;66.01
61710;BME280;47633;51.494;5.386;2023-08-12T08:20:20;101398.59;;;22.89;65.51
61710;BME280;47633;51.494;5.386;2023-08-12T08:22:46;101396.66;;;22.91;64.74
61710;BME280;47633;51.494;5.386;2023-08-12T08:25:12;101402.09;;;22.89;65.25
61710;BME280;47633;51.494;5.386;2023-08-12T08:27:37;101402.78;;;22.91;65.16
61710;BME280;47633;51.494;5.386;2023-08-12T08:30:04;101399.31;;;22.91;64.94
61710;BME280;47633;51.494;5.386;2023-08-12T08:32:29;101404.63;;;22.91;64.92
61710;BME280;47633;51.494;5.386;2023-08-12T08:34:55;101404.31;;;22.94;65.54
61710;BME280;47633;51.494;5.386;2023-08-12T08:37:21;101399.44;;;22.99;65.16
61710;BME280;47633;51.494;5.386;2023-08-12T08:39:46;101407.78;;;23.04;65.06
61710;BME280;47633;51.494;5.386;2023-08-12T08:42:12;101405.00;;;23.06;65.30
61710;BME280;47633;51.494;5.386;2023-08-12T08:44:40;101406.56;;;23.08;64.70
61710;BME280;47633;51.494;5.386;2023-08-12T08:47:08;101418.88;;;23.09;65.27
61710;BME280;47633;51.494;5.386;2023-08-12T08:49:34;101414.22;;;23.11;64.69
61710;BME280;47633;51.494;5.386;2023-08-12T08:52:01;101415.09;;;23.12;65.08
61710;BME280;47633;51.494;5.386;2023-08-12T08:54:27;101420.13;;;23.15;65.12
61710;BME280;47633;51.494;5.386;2023-08-12T08:56:52;101424.44;;;23.16;64.90
61710;BME280;47633;51.494;5.386;2023-08-12T08:59:18;101416.47;;;23.16;64.96
61710;BME280;47633;51.494;5.386;2023-08-12T09:01:45;101410.16;;;23.17;64.63
61710;BME280;47633;51.494;5.386;2023-08-12T09:04:12;101415.34;;;23.18;64.60
61710;BME280;47633;51.494;5.386;2023-08-12T09:06:39;101424.56;;;23.14;64.57
61710;BME280;47633;51.494;5.386;2023-08-12T09:09:10;101432.56;;;23.14;64.52
61710;BME280;47633;51.494;5.386;2023-08-12T09:11:38;101434.09;;;23.17;64.07
61710;BME280;47633;51.494;5.386;2023-08-12T09:14:04;101433.81;;;23.20;64.39
61710;BME280;47633;51.494;5.386;2023-08-12T09:16:30;101436.47;;;23.20;64.51
61710;BME280;47633;51.494;5.386;2023-08-12T09:18:56;101449.75;;;23.20;64.21
61710;BME280;47633;51.494;5.386;2023-08-12T09:21:22;101455.91;;;23.21;63.99
61710;BME280;47633;51.494;5.386;2023-08-12T09:23:48;101464.75;;;23.21;64.06
61710;BME280;47633;51.494;5.386;2023-08-12T09:26:18;101453.13;;;23.22;64.19
61710;BME280;47633;51.494;5.386;2023-08-12T09:28:44;101453.69;;;23.26;64.12
61710;BME280;47633;51.494;5.386;2023-08-12T09:31:30;101459.00;;;23.26;64.14
61710;BME280;47633;51.494;5.386;2023-08-12T09:34:04;101458.16;;;23.25;64.12
61710;BME280;47633;51.494;5.386;2023-08-12T09:36:30;101462.63;;;23.25;63.84
61710;BME280;47633;51.494;5.386;2023-08-12T09:38:56;101461.66;;;23.26;64.38
61710;BME280;47633;51.494;5.386;2023-08-12T09:41:24;101461.81;;;23.24;64.38
61710;BME280;47633;51.494;5.386;2023-08-12T09:43:51;101461.66;;;23.26;64.16
61710;BME280;47633;51.494;5.386;2023-08-12T09:46:17;101469.63;;;23.26;63.95
61710;BME280;47633;51.494;5.386;2023-08-12T09:48:42;101453.13;;;23.22;64.16
61710;BME280;47633;51.494;5.386;2023-08-12T09:51:09;101469.06;;;23.22;64.57
61710;BME280;47633;51.494;5.386;2023-08-12T09:53:34;101466.25;;;23.24;64.28
61710;BME280;47633;51.494;5.386;2023-08-12T09:56:07;101470.63;;;23.25;64.17
61710;BME280;47633;51.494;5.386;2023-08-12T09:58:33;101462.34;;;23.28;63.99
61710;BME280;47633;51.494;5.386;2023-08-12T10:01:02;101465.56;;;23.31;63.69
61710;BME280;47633;51.494;5.386;2023-08-12T10:03:28;101474.50;;;23.30;64.52
61710;BME280;47633;51.494;5.386;2023-08-12T10:05:55;101477.16;;;23.30;64.11
61710;BME280;47633;51.494;5.386;2023-08-12T10:08:21;101475.22;;;23.32;64.33
61710;BME280;47633;51.494;5.386;2023-08-12T10:10:48;101469.19;;;23.30;64.65
61710;BME280;47633;51.494;5.386;2023-08-12T10:13:14;101486.53;;;23.34;64.44
61710;BME280;47633;51.494;5.386;2023-08-12T10:15:40;101478.28;;;23.38;64.32
61710;BME280;47633;51.494;5.386;2023-08-12T10:18:06;101475.63;;;23.38;64.22
61710;BME280;47633;51.494;5.386;2023-08-12T10:20:31;101473.94;;;23.36;64.57
61710;BME280;47633;51.494;5.386;2023-08-12T10:22:59;101475.63;;;23.38;64.19
61710;BME280;47633;51.494;5.386;2023-08-12T10:25:25;101486.09;;;23.39;64.16
61710;BME280;47633;51.494;5.386;2023-08-12T10:27:55;101470.97;;;23.40;63.82
61710;BME280;47633;51.494;5.386;2023-08-12T10:30:21;101472.13;;;23.37;64.26
61710;BME280;47633;51.494;5.386;2023-08-12T10:32:46;101464.97;;;23.38;63.95
61710;BME280;47633;51.494;5.386;2023-08-12T10:35:12;101461.50;;;23.37;63.79
61710;BME280;47633;51.494;5.386;2023-08-12T10:37:39;101471.41;;;23.35;64.35
61710;BME280;47633;51.494;5.386;2023-08-12T10:40:05;101461.19;;;23.30;64.16
61710;BME280;47633;51.494;5.386;2023-08-12T10:42:45;101467.53;;;23.29;64.56
61710;BME280;47633;51.494;5.386;2023-08-12T10:45:12;101476.31;;;23.30;64.59
61710;BME280;47633;51.494;5.386;2023-08-12T10:47:43;101473.66;;;23.30;64.73
61710;BME280;47633;51.494;5.386;2023-08-12T10:50:22;101474.50;;;23.30;65.24
61710;BME280;47633;51.494;5.386;2023-08-12T10:52:51;101476.72;;;23.35;64.47
61710;BME280;47633;51.494;5.386;2023-08-12T10:55:24;101482.06;;;23.35;64.87
61710;BME280;47633;51.494;5.386;2023-08-12T10:57:52;101475.63;;;23.38;64.91
61710;BME280;47633;51.494;5.386;2023-08-12T11:00:19;101477.31;;;23.39;64.91
61710;BME280;47633;51.494;5.386;2023-08-12T11:02:57;101486.94;;;23.40;64.74
61710;BME280;47633;51.494;5.386;2023-08-12T11:05:39;101494.91;;;23.40;64.91
61710;BME280;47633;51.494;5.386;2023-08-12T11:08:05;101493.25;;;23.39;64.69
61710;BME280;47633;51.494;5.386;2023-08-12T11:10:32;101493.41;;;23.37;64.54
61710;BME280;47633;51.494;5.386;2023-08-12T11:12:58;101498.44;;;23.40;64.54
61710;BME280;47633;51.494;5.386;2023-08-12T11:15:37;101488.47;;;23.42;64.42
61710;BME280;47633;51.494;5.386;2023-08-12T11:18:04;101482.03;;;23.45;64.11
61710;BME280;47633;51.494;5.386;2023-08-12T11:20:31;101485.53;;;23.45;63.75
61710;BME280;47633;51.494;5.386;2023-08-12T11:22:56;101488.06;;;23.47;64.24
61710;BME280;47633;51.494;5.386;2023-08-12T11:25:24;101480.06;;;23.47;64.18
61710;BME280;47633;51.494;5.386;2023-08-12T11:27:49;101468.44;;;23.48;63.90
61710;BME280;47633;51.494;5.386;2023-08-12T11:30:19;101474.75;;;23.47;63.76
61710;BME280;47633;51.494;5.386;2023-08-12T11:32:50;101472.91;;;23.47;63.35
61710;BME280;47633;51.494;5.386;2023-08-12T11:35:18;101481.59;;;23.49;63.49
61710;BME280;47633;51.494;5.386;2023-08-12T11:37:46;101475.59;;;23.47;63.82
61710;BME280;47633;51.494;5.386;2023-08-12T11:40:12;101482.03;;;23.45;63.98
61710;BME280;47633;51.494;5.386;2023-08-12T11:42:41;101481.88;;;23.46;63.42
61710;BME280;47633;51.494;5.386;2023-08-12T11:45:07;101482.59;;;23.48;63.69
61710;BME280;47633;51.494;5.386;2023-08-12T11:47:44;101481.72;;;23.48;63.54
61710;BME280;47633;51.494;5.386;2023-08-12T11:50:12;101481.44;;;23.51;63.49
61710;BME280;47633;51.494;5.386;2023-08-12T11:52:45;101480.47;;;23.52;63.13
61710;BME280;47633;51.494;5.386;2023-08-12T11:55:13;101478.19;;;23.57;62.62
61710;BME280;47633;51.494;5.386;2023-08-12T12:00:33;101481.72;;;23.58;62.55
61710;BME280;47633;51.494;5.386;2023-08-12T12:02:59;101488.31;;;23.53;63.09
61710;BME280;47633;51.494;5.386;2023-08-12T12:05:29;101482.59;;;23.48;62.71
61710;BME280;47633;51.494;5.386;2023-08-12T12:07:55;101484.38;;;23.48;62.76
61710;BME280;47633;51.494;5.386;2023-08-12T12:10:28;101487.91;;;23.48;63.14
61710;BME280;47633;51.494;5.386;2023-08-12T12:12:55;101489.28;;;23.52;63.07
61710;BME280;47633;51.494;5.386;2023-08-12T12:15:21;101479.06;;;23.58;62.40
61710;BME280;47633;51.494;5.386;2023-08-12T12:17:50;101480.19;;;23.55;62.68
61710;BME280;47633;51.494;5.386;2023-08-12T12:20:16;101477.38;;;23.57;62.99
61710;BME280;47633;51.494;5.386;2023-08-12T12:22:43;101480.44;;;23.62;62.66
61710;BME280;47633;51.494;5.386;2023-08-12T12:25:11;101480.16;;;23.65;62.41
61710;BME280;47633;51.494;5.386;2023-08-12T12:27:38;101481.84;;;23.66;62.17
61710;BME280;47633;51.494;5.386;2023-08-12T12:30:11;101483.63;;;23.65;61.33
61710;BME280;47633;51.494;5.386;2023-08-12T12:32:36;101482.38;;;23.69;61.71
61710;BME280;47633;51.494;5.386;2023-08-12T12:35:02;101489.66;;;23.67;62.39
61710;BME280;47633;51.494;5.386;2023-08-12T12:37:29;101497.38;;;23.70;62.77
61710;BME280;47633;51.494;5.386;2023-08-12T12:39:54;101491.31;;;23.68;62.39
61710;BME280;47633;51.494;5.386;2023-08-12T12:42:20;101495.66;;;23.69;60.92
61710;BME280;47633;51.494;5.386;2023-08-12T12:44:45;101502.69;;;23.70;61.23
61710;BME280;47633;51.494;5.386;2023-08-12T12:47:10;101499.16;;;23.70;61.40
61710;BME280;47633;51.494;5.386;2023-08-12T12:49:38;101506.59;;;23.66;60.93